Date,TemperatureHighF,TemperatureAvgF,TemperatureLowF,DewpointHighF,DewpointAvgF,DewpointLowF,HumidityHigh,HumidityAvg,HumidityLow,PressureMaxIn,PressureMinIn,WindSpeedMaxMPH,WindSpeedAvgMPH,GustSpeedMaxMPH,PrecipitationSumIn
2013-3-1,33.9,31.2,27.7,30.7,27.1,23.2,89,85,77,29.98,29.81,14,4,14,0.05
2013-3-2,29.7,26.9,25.0,24.2,22.5,20.3,90,83,76,29.98,29.92,14,3,14,0.02
2013-3-3,28.5,26.1,23.7,22.9,20.9,18.5,87,81,70,30.04,29.93,17,4,17,0.01
2013-3-4,37.1,27.4,22.1,23.1,19.6,15.7,90,73,51,30.16,30.03,18,3,21,0.01
2013-3-5,50.7,33.0,18.4,30.3,20.5,13.6,93,66,25,30.14,29.72,24,2,25,0.01
2013-3-6,41.7,35.2,31.2,33.7,30.8,29.0,96,84,65,30.12,29.72,15,2,16,0.38
2013-3-7,39.6,35.7,33.7,31.3,30.2,29.0,89,80,67,30.28,30.11,16,3,16,0.03
2013-3-8,36.4,32.2,24.8,29.1,27.1,23.0,93,81,73,30.43,30.27,18,4,18,0.01
2013-3-9,58.2,34.9,21.8,34.8,26.1,20.2,95,76,24,30.46,30.26,7,1,7,0.00
2013-3-10,66.8,44.6,27.4,37.1,31.8,25.3,94,67,29,30.28,30.07,11,1,11,0.00
2013-3-11,58.2,48.7,39.8,48.7,39.2,32.0,86,71,39,30.09,29.78,21,1,24,0.04
2013-3-12,53.1,41.1,36.7,48.8,36.9,28.1,97,85,70,30.02,29.75,15,3,16,0.37
2013-3-13,38.5,32.9,27.8,30.8,27.1,19.9,92,79,57,30.14,29.95,20,4,20,0.04
2013-3-14,39.4,30.7,25.4,24.8,20.4,16.0,82,66,46,30.24,30.14,24,5,24,0.00
2013-3-15,51.5,37.8,23.1,36.8,28.0,20.6,91,69,51,30.17,29.83,20,2,20,0.00
2013-3-16,47.8,42.6,37.6,45.8,40.1,34.9,97,91,70,29.93,29.61,20,2,20,0.03
2013-3-17,39.9,35.6,31.0,35.1,27.8,23.9,92,74,58,30.21,29.93,12,3,13,0.00
2013-3-18,36.0,33.6,30.6,32.8,29.4,25.1,94,85,68,30.20,29.82,15,2,15,0.16
2013-3-19,46.9,38.6,33.5,36.0,27.1,14.8,98,67,29,29.99,29.77,26,5,29,0.47
2013-3-20,41.7,34.1,28.3,27.1,19.5,16.1,83,56,40,30.00,29.81,28,4,28,0.00
2013-3-21,28.6,24.9,20.3,22.1,15.4,10.5,87,68,51,29.97,29.85,20,4,20,0.01
2013-3-22,38.9,29.7,24.1,22.8,19.9,17.8,85,67,49,30.06,29.94,17,4,17,0.01
2013-3-23,47.6,32.1,18.2,27.0,22.3,16.3,94,71,38,30.08,30.00,17,2,18,0.00
2013-3-24,39.3,31.2,23.8,30.3,25.2,21.5,93,80,53,30.03,29.59,18,1,18,0.00
2013-3-25,38.1,33.8,30.7,33.5,31.1,28.0,96,90,80,29.75,29.51,10,1,12,0.49
2013-3-26,41.2,36.0,32.5,32.2,30.8,28.6,94,82,64,30.10,29.75,17,3,17,0.15
2013-3-27,41.4,36.4,31.9,31.5,28.8,25.8,93,75,56,30.19,30.08,19,4,19,0.12
2013-3-28,40.9,36.7,33.0,32.6,30.6,28.2,90,79,66,30.29,30.15,13,2,14,0.03
2013-3-29,52.2,40.5,33.0,35.5,30.7,25.1,94,72,37,30.30,30.17,15,1,16,0.00
2013-3-30,55.2,39.5,25.7,32.7,27.5,19.0,96,68,26,30.28,30.09,11,1,11,0.00
2013-3-31,48.5,39.5,31.7,46.4,37.0,28.3,97,91,83,30.09,29.75,9,0,10,0.20